Time;durP1;ratioP1;P1;durP2;ratioP2;P2;SDS_P1;SDS_P2;PMS_P1;PMS_P2;Temp;Humidity;BMP_temperature;BMP_pressure;BME280_temperature;BME280_humidity;BME280_pressure;Samples;Min_cycle;Max_cycle;Signal;HPM_P1;HPM_P2
2024/02/05 00:01:18;;;;;;;3.70;2.60;;;;;;;4.59;100.00;96060.16;106870;1303;22548;-87
2024/02/05 00:04:49;;;;;;;2.10;1.40;;;;;;;4.57;100.00;96057.77;106744;1303;138380;-87
2024/02/05 00:08:16;;;;;;;2.20;1.50;;;;;;;4.54;100.00;96044.67;106974;1303;24219;-87
2024/02/05 00:11:38;;;;;;;2.20;1.00;;;;;;;4.53;100.00;96063.27;106625;1301;138288;-87
2024/02/05 00:15:17;;;;;;;2.20;1.60;;;;;;;4.52;100.00;96033.18;106758;1303;22608;-87
2024/02/05 00:18:44;;;;;;;3.30;1.90;;;;;;;4.50;100.00;96034.77;106738;1303;22573;-87
2024/02/05 00:22:12;;;;;;;3.00;2.50;;;;;;;4.51;100.00;96021.47;106769;1303;138803;-87
2024/02/05 00:25:39;;;;;;;2.20;1.70;;;;;;;4.52;100.00;96026.43;107027;1303;22602;-87
2024/02/05 00:29:08;;;;;;;1.80;1.40;;;;;;;4.54;100.00;96019.42;106743;1303;139441;-85
2024/02/05 00:32:39;;;;;;;2.80;1.70;;;;;;;4.57;100.00;96012.84;106787;1303;22530;-87
2024/02/05 00:36:10;;;;;;;1.70;1.20;;;;;;;4.59;100.00;96015.88;106896;1303;24261;-87
2024/02/05 00:39:37;;;;;;;2.70;1.80;;;;;;;4.60;100.00;96018.31;106915;1294;22607;-86
2024/02/05 00:43:05;;;;;;;2.30;1.60;;;;;;;4.60;100.00;96023.36;106808;1301;22698;-87
2024/02/05 00:46:32;;;;;;;1.60;1.30;;;;;;;4.60;100.00;96017.45;106755;1303;139045;-86
2024/02/05 00:49:59;;;;;;;6.30;4.20;;;;;;;4.59;100.00;96028.04;106951;1303;22656;-87
2024/02/05 00:53:36;;;;;;;1.00;0.80;;;;;;;4.59;100.00;96027.70;106815;1303;138282;-87
2024/02/05 00:57:03;;;;;;;3.00;2.00;;;;;;;4.60;100.00;96032.98;106957;1303;22591;-88
2024/02/05 01:00:31;;;;;;;1.70;0.90;;;;;;;4.58;100.00;96026.41;106811;1303;25529;-87
2024/02/05 01:03:58;;;;;;;2.20;1.20;;;;;;;4.58;100.00;96013.20;106675;1303;138686;-87
2024/02/05 01:07:34;;;;;;;1.60;1.10;;;;;;;4.58;100.00;96006.67;106865;1302;22528;-88
2024/02/05 01:11:03;;;;;;;0.90;0.70;;;;;;;4.58;100.00;96004.52;106814;1303;138382;-87
2024/02/05 01:14:30;;;;;;;1.40;0.80;;;;;;;4.55;100.00;96001.70;107005;1296;23115;-87
2024/02/05 01:17:57;;;;;;;1.00;0.80;;;;;;;4.52;100.00;95995.10;106702;1296;139671;-87
2024/02/05 01:21:25;;;;;;;1.10;0.90;;;;;;;4.50;100.00;95988.64;106804;1296;22676;-86
2024/02/05 01:24:52;;;;;;;1.10;0.90;;;;;;;4.49;100.00;95979.15;106859;1303;22552;-88
2024/02/05 01:28:20;;;;;;;0.70;0.50;;;;;;;4.49;100.00;95975.66;106734;1303;138668;-87
2024/02/05 01:31:47;;;;;;;1.10;0.70;;;;;;;4.48;100.00;95966.89;106882;1298;22750;-87
2024/02/05 01:35:14;;;;;;;0.50;0.50;;;;;;;4.48;100.00;95958.27;106722;1303;138591;-87
2024/02/05 01:38:43;;;;;;;0.70;0.60;;;;;;;4.47;100.00;95951.55;106854;1303;23717;-87
2024/02/05 01:42:10;;;;;;;1.20;0.90;;;;;;;4.47;100.00;95948.30;106738;1303;138979;-88
2024/02/05 01:45:38;;;;;;;0.50;0.50;;;;;;;4.48;100.00;95942.16;102944;1300;5193169;-87
2024/02/05 01:49:05;;;;;;;1.20;1.10;;;;;;;4.48;100.00;95929.52;106853;1302;22559;-87
2024/02/05 01:52:32;;;;;;;1.10;0.70;;;;;;;4.47;100.00;95913.48;106771;1302;138535;-87
2024/02/05 01:56:00;;;;;;;1.30;0.90;;;;;;;4.47;100.00;95909.00;106671;1302;24224;-85
2024/02/05 01:59:27;;;;;;;0.90;0.70;;;;;;;4.47;100.00;95901.45;106559;1296;138295;-84
2024/02/05 02:03:00;;;;;;;1.00;0.90;;;;;;;4.46;100.00;95887.80;106621;1303;22603;-85
2024/02/05 02:06:30;;;;;;;2.00;1.80;;;;;;;4.46;100.00;95880.30;106404;1303;138400;-84
2024/02/05 02:09:58;;;;;;;2.60;1.40;;;;;;;4.45;100.00;95873.49;107151;1303;22612;-85
2024/02/05 02:13:35;;;;;;;;;;;;;;;;;;;;;
2024/02/05 02:17:07;;;;;;;1.40;0.80;;;;;;;4.48;100.00;95849.06;106551;1303;22605;-85
2024/02/05 02:20:37;;;;;;;2.50;1.10;;;;;;;4.47;100.00;95843.62;106643;1295;22735;-85
2024/02/05 02:24:04;;;;;;;1.90;1.30;;;;;;;4.47;100.00;95834.91;106268;1303;138624;-85
2024/02/05 02:27:33;;;;;;;1.30;1.20;;;;;;;4.47;100.00;95826.52;106694;1296;23950;-85
2024/02/05 02:31:01;;;;;;;1.00;0.90;;;;;;;4.46;100.00;95823.69;106819;1298;23197;-85
2024/02/05 02:34:31;;;;;;;1.50;0.80;;;;;;;4.47;100.00;95812.97;106507;1294;138937;-86
2024/02/05 02:38:07;;;;;;;0.50;0.50;;;;;;;4.52;100.00;95801.81;106675;1303;22548;-85
2024/02/05 02:41:35;;;;;;;0.90;0.70;;;;;;;4.59;100.00;95785.64;106676;1296;138263;-85
2024/02/05 02:45:02;;;;;;;0.90;0.60;;;;;;;4.66;100.00;95782.55;106606;1303;23771;-85
2024/02/05 02:48:38;;;;;;;0.80;0.70;;;;;;;4.73;100.00;95778.02;106522;1303;138351;-83
2024/02/05 02:52:04;;;;;;;;;;;;;;;;;;;;;
2024/02/05 02:55:34;;;;;;;0.90;0.80;;;;;;;4.92;100.00;95757.43;106795;1303;23897;-86
2024/02/05 02:59:05;;;;;;;1.10;0.60;;;;;;;5.01;100.00;95757.32;106496;1298;138370;-85
2024/02/05 03:02:30;;;;;;;0.70;0.60;;;;;;;5.17;100.00;95752.64;106748;1299;22583;-84
2024/02/05 03:05:58;;;;;;;0.70;0.50;;;;;;;5.30;100.00;95746.38;106462;1303;138424;-85
2024/02/05 03:09:27;;;;;;;1.60;0.80;;;;;;;5.40;100.00;95738.70;106647;1303;22589;-85
2024/02/05 03:12:54;;;;;;;0.70;0.70;;;;;;;5.53;100.00;95741.96;106786;1303;22649;-84
2024/02/05 03:16:22;;;;;;;1.60;0.70;;;;;;;5.65;100.00;95733.84;106613;1303;22580;-86
2024/02/05 03:19:49;;;;;;;0.60;0.60;;;;;;;5.72;100.00;95733.56;106736;1298;23021;-86
2024/02/05 03:23:18;;;;;;;0.80;0.70;;;;;;;5.80;100.00;95739.80;106439;1303;138530;-83
2024/02/05 03:26:46;;;;;;;0.90;0.80;;;;;;;5.88;100.00;95733.57;106739;1297;25296;-84
2024/02/05 03:30:13;;;;;;;0.80;0.80;;;;;;;5.97;100.00;95729.24;107210;1302;138396;-84
2024/02/05 03:33:40;;;;;;;0.70;0.70;;;;;;;6.06;100.00;95735.25;106619;1303;22583;-84
2024/02/05 03:37:10;;;;;;;0.80;0.70;;;;;;;6.13;100.00;95727.08;106616;1297;23244;-85
2024/02/05 03:40:39;;;;;;;0.70;0.60;;;;;;;6.20;100.00;95734.66;106833;1296;22808;-86
2024/02/05 03:44:08;;;;;;;0.70;0.70;;;;;;;6.24;100.00;95718.18;106633;1298;22569;-85
2024/02/05 03:47:44;;;;;;;;;;;;;;;;;;;;;
2024/02/05 03:50:59;;;;;;;;;;;;;;;;;;;;;
2024/02/05 03:54:28;;;;;;;0.70;0.60;;;;;;;6.37;100.00;95716.63;106469;1280;138190;-86
2024/02/05 03:57:55;;;;;;;1.00;0.60;;;;;;;6.48;100.00;95701.75;106612;1303;22576;-85
2024/02/05 04:01:22;;;;;;;2.10;1.00;;;;;;;6.56;100.00;95719.61;106652;1299;22564;-86
2024/02/05 04:04:50;;;;;;;0.60;0.60;;;;;;;6.60;100.00;95720.73;106641;1303;22651;-86
2024/02/05 04:08:17;;;;;;;0.60;0.60;;;;;;;6.60;100.00;95708.48;106628;1288;22582;-85
2024/02/05 04:11:54;;;;;;;;;;;;;;;;;;;;;
2024/02/05 04:15:18;;;;;;;0.70;0.70;;;;;;;6.69;100.00;95713.00;106628;1296;24226;-85
2024/02/05 04:18:46;;;;;;;1.30;0.70;;;;;;;6.71;100.00;95697.74;106288;1297;138501;-86
2024/02/05 04:22:14;;;;;;;2.00;1.60;;;;;;;6.75;100.00;95696.00;106676;1303;22549;-86
2024/02/05 04:25:42;;;;;;;2.30;2.00;;;;;;;6.75;100.00;95698.20;106713;1303;22632;-85
2024/02/05 04:29:20;;;;;;;14.50;9.70;;;;;;;6.78;100.00;95706.81;106509;1303;138516;-87
2024/02/05 04:32:40;;;;;;;6.60;3.00;;;;;;;6.78;100.00;95704.52;106576;1295;22554;-83
2024/02/05 04:36:11;;;;;;;5.70;3.60;;;;;;;6.80;100.00;95699.46;106672;1297;24254;-84
2024/02/05 04:39:39;;;;;;;14.60;6.90;;;;;;;6.83;100.00;95706.68;106826;1303;22633;-85
2024/02/05 04:43:06;;;;;;;7.70;3.30;;;;;;;6.86;100.00;95700.24;106584;1302;137639;-85
2024/02/05 04:46:35;;;;;;;6.50;2.50;;;;;;;6.88;100.00;95702.38;106660;1303;22575;-86
2024/02/05 04:50:02;;;;;;;1.90;1.20;;;;;;;6.89;100.00;95702.98;107086;1303;22591;-86
2024/02/05 04:53:30;;;;;;;2.80;1.60;;;;;;;6.89;100.00;95708.95;106730;1297;137737;-86
2024/02/05 04:56:57;;;;;;;29.20;13.60;;;;;;;6.91;100.00;95702.47;106612;1303;25484;-86
2024/02/05 05:00:25;;;;;;;14.90;5.80;;;;;;;6.92;100.00;95707.85;106540;1295;138732;-86
2024/02/05 05:03:52;;;;;;;3.80;1.50;;;;;;;6.94;100.00;95707.51;107036;1296;22600;-89
2024/02/05 05:07:20;;;;;;;6.10;3.00;;;;;;;6.97;100.00;95707.62;106637;1302;138468;-88
2024/02/05 05:10:47;;;;;;;3.60;2.40;;;;;;;6.99;100.00;95709.50;107098;1302;22527;-88
2024/02/05 05:14:15;;;;;;;12.80;4.60;;;;;;;7.02;100.00;95705.98;106970;1303;25470;-89
2024/02/05 05:17:43;;;;;;;6.20;3.00;;;;;;;7.03;100.00;95696.73;106902;1303;139079;-88
2024/02/05 05:21:10;;;;;;;7.40;2.70;;;;;;;7.05;100.00;95704.55;107110;1303;22583;-89
2024/02/05 05:24:37;;;;;;;7.30;2.80;;;;;;;7.07;100.00;95699.69;106944;1280;138886;-89
2024/02/05 05:28:07;;;;;;;2.60;2.00;;;;;;;7.10;100.00;95700.52;107052;1302;22549;-88
2024/02/05 05:31:32;;;;;;;23.50;6.40;;;;;;;7.13;100.00;95697.30;107024;1303;138240;-89
2024/02/05 05:35:00;;;;;;;25.70;7.90;;;;;;;7.14;100.00;95696.08;107071;1298;24313;-89
2024/02/05 05:38:27;;;;;;;18.20;5.70;;;;;;;7.16;100.00;95689.46;107044;1303;22543;-88
2024/02/05 05:41:55;;;;;;;22.80;9.20;;;;;;;7.16;100.00;95702.73;107029;1295;138715;-88
2024/02/05 05:45:14;;;;;;;;;;;;;;;;;;;;;
2024/02/05 05:48:45;;;;;;;9.70;3.20;;;;;;;7.17;100.00;95702.77;106936;1303;138923;-89
2024/02/05 05:52:13;;;;;;;4.90;1.70;;;;;;;7.17;100.00;95706.80;107173;1303;25451;-87
2024/02/05 05:55:41;;;;;;;12.40;4.60;;;;;;;7.16;100.00;95712.00;106968;1303;138570;-89
2024/02/05 05:59:08;;;;;;;6.70;2.60;;;;;;;7.17;100.00;95713.35;107209;1303;22546;-88
2024/02/05 06:02:35;;;;;;;2.70;1.60;;;;;;;7.19;100.00;95719.46;107081;1296;22595;-88
2024/02/05 06:06:04;;;;;;;13.90;5.00;;;;;;;7.20;100.00;95717.96;106823;1302;138490;-88
2024/02/05 06:09:29;;;;;;;30.40;9.20;;;;;;;7.21;100.00;95714.52;106890;1302;22606;-88
2024/02/05 06:12:58;;;;;;;11.80;4.50;;;;;;;7.21;100.00;95716.27;107050;1303;137301;-88
2024/02/05 06:16:24;;;;;;;4.40;1.50;;;;;;;7.21;100.00;95716.43;107010;1303;25320;-88
2024/02/05 06:19:53;;;;;;;3.00;1.50;;;;;;;7.24;100.00;95715.95;107007;1303;138365;-89
2024/02/05 06:23:20;;;;;;;13.10;8.80;;;;;;;7.26;100.00;95721.38;107256;1302;22555;-87
2024/02/05 06:26:48;;;;;;;17.00;4.90;;;;;;;7.28;100.00;95720.20;107081;1302;23172;-89
2024/02/05 06:30:15;;;;;;;10.80;3.70;;;;;;;7.29;100.00;95733.46;106989;1300;137589;-88
2024/02/05 06:33:44;;;;;;;6.50;2.70;;;;;;;7.33;100.00;95729.53;107153;1296;22631;-89
2024/02/05 06:37:13;;;;;;;8.00;2.10;;;;;;;7.35;100.00;95731.77;107126;1300;138553;-88
2024/02/05 06:40:41;;;;;;;11.90;4.60;;;;;;;7.36;100.00;95727.27;107159;1295;22657;-89
2024/02/05 06:44:08;;;;;;;1.70;1.30;;;;;;;7.40;100.00;95737.81;107189;1293;25444;-87
2024/02/05 06:47:35;;;;;;;3.70;2.00;;;;;;;7.45;100.00;95730.95;107107;1296;22670;-88
2024/02/05 06:51:04;;;;;;;8.60;2.60;;;;;;;7.44;100.00;95730.18;107061;1302;24416;-88
2024/02/05 06:54:32;;;;;;;38.90;24.70;;;;;;;7.44;100.00;95735.90;107295;1302;138571;-89
2024/02/05 06:57:58;;;;;;;6.40;2.10;;;;;;;7.44;100.00;95742.42;107087;1296;22545;-89
2024/02/05 07:01:26;;;;;;;22.40;7.20;;;;;;;7.45;100.00;95741.56;107015;1295;139370;-89
2024/02/05 07:04:53;;;;;;;14.90;4.50;;;;;;;7.46;100.00;95739.03;107124;1297;23850;-88
2024/02/05 07:08:21;;;;;;;13.40;4.10;;;;;;;7.46;100.00;95742.45;107124;1303;23250;-89
2024/02/05 07:11:48;;;;;;;14.50;5.00;;;;;;;7.48;100.00;95745.23;107139;1300;22678;-87
2024/02/05 07:15:16;;;;;;;8.10;3.60;;;;;;;7.51;100.00;95752.61;107215;1302;24326;-89
2024/02/05 07:18:43;;;;;;;6.10;2.90;;;;;;;7.54;100.00;95747.27;107135;1302;138746;-88
2024/02/05 07:22:10;;;;;;;15.60;6.00;;;;;;;7.55;100.00;95759.95;107215;1302;22734;-88
2024/02/05 07:25:39;;;;;;;6.80;2.70;;;;;;;7.56;100.00;95760.21;107093;1303;138930;-88
2024/02/05 07:29:05;;;;;;;4.90;4.30;;;;;;;7.57;100.00;95773.35;107101;1303;23683;-88
2024/02/05 07:32:32;;;;;;;17.10;5.50;;;;;;;7.56;100.00;95783.09;107045;1303;25448;-89
2024/02/05 07:35:59;;;;;;;10.80;3.20;;;;;;;7.53;100.00;95787.19;107213;1299;22580;-87
2024/02/05 07:39:28;;;;;;;13.00;4.90;;;;;;;7.50;100.00;95790.42;107015;1297;22565;-87
2024/02/05 07:42:55;;;;;;;10.80;3.90;;;;;;;7.48;100.00;95783.14;107044;1297;138866;-87
2024/02/05 07:46:25;;;;;;;10.50;3.90;;;;;;;7.46;100.00;95787.08;107117;1298;24255;-87
2024/02/05 07:49:52;;;;;;;1.70;1.40;;;;;;;7.48;100.00;95784.02;107165;1295;138396;-87
2024/02/05 07:53:19;;;;;;;5.40;2.40;;;;;;;7.47;100.00;95792.86;107009;1296;25510;-87
2024/02/05 07:56:47;;;;;;;8.30;3.40;;;;;;;7.48;100.00;95809.34;107167;1295;22563;-87
2024/02/05 08:00:14;;;;;;;9.60;4.10;;;;;;;7.50;100.00;95810.07;107038;1303;23295;-87
2024/02/05 08:03:42;;;;;;;4.60;2.40;;;;;;;7.50;100.00;95809.13;107036;1303;22699;-87
2024/02/05 08:07:09;;;;;;;4.20;3.40;;;;;;;7.51;100.00;95805.50;107004;1302;139033;-88
2024/02/05 08:10:37;;;;;;;13.50;4.50;;;;;;;7.51;100.00;95803.98;107122;1296;25239;-87
2024/02/05 08:14:04;;;;;;;3.50;2.10;;;;;;;7.52;100.00;95800.77;107045;1302;139000;-87
2024/02/05 08:17:32;;;;;;;7.40;3.10;;;;;;;7.51;100.00;95821.02;107192;1303;24008;-87
2024/02/05 08:20:59;;;;;;;3.60;2.30;;;;;;;7.54;100.00;95820.60;107158;1303;22611;-87
2024/02/05 08:24:36;;;;;;;5.20;2.90;;;;;;;7.56;100.00;95831.73;107180;1299;22939;-87
2024/02/05 08:28:05;;;;;;;4.50;2.10;;;;;;;7.56;100.00;95824.58;106803;1301;22582;-85
2024/02/05 08:31:38;;;;;;;4.70;3.60;;;;;;;7.57;100.00;95823.15;106754;1299;137145;-84
2024/02/05 08:35:07;;;;;;;11.20;5.80;;;;;;;7.56;100.00;95819.67;106572;1303;22567;-85
2024/02/05 08:38:44;;;;;;;;;;;;;;;;;;;;;
2024/02/05 08:42:38;;;;;;;7.10;4.50;;;;;;;7.56;100.00;95830.66;106774;1297;22555;-85
2024/02/05 08:46:06;;;;;;;6.90;4.90;;;;;;;7.56;100.00;95828.76;107120;1303;24429;-85
2024/02/05 08:49:33;;;;;;;64.70;36.70;;;;;;;7.57;100.00;95832.30;106536;1303;138364;-86
2024/02/05 08:53:00;;;;;;;17.70;10.60;;;;;;;7.56;100.00;95845.95;106715;1297;22765;-85
2024/02/05 08:56:27;;;;;;;12.80;7.70;;;;;;;7.56;100.00;95845.63;106581;1300;138590;-85
2024/02/05 09:00:10;;;;;;;;;;;;;;;;;;;;;
2024/02/05 09:03:35;;;;;;;11.50;6.90;;;;;;;7.57;100.00;95859.70;106682;1296;22632;-85
2024/02/05 09:07:02;;;;;;;8.20;4.30;;;;;;;7.57;100.00;95873.27;106847;1297;24187;-86
2024/02/05 09:10:29;;;;;;;7.80;2.90;;;;;;;7.57;100.00;95877.96;106677;1302;25323;-85
2024/02/05 09:13:57;;;;;;;6.50;2.90;;;;;;;7.56;100.00;95884.55;106715;1303;24341;-86
2024/02/05 09:17:24;;;;;;;8.90;3.80;;;;;;;7.55;100.00;95879.73;106678;1303;22768;-86
2024/02/05 09:20:51;;;;;;;6.50;2.60;;;;;;;7.55;100.00;95885.35;106537;1303;138414;-84
2024/02/05 09:24:20;;;;;;;7.60;3.10;;;;;;;7.55;100.00;95892.94;106690;1297;22611;-85
2024/02/05 09:27:47;;;;;;;8.20;3.70;;;;;;;7.55;100.00;95895.59;106844;1303;22625;-85
2024/02/05 09:31:15;;;;;;;16.90;6.80;;;;;;;7.55;100.00;95888.84;106590;1303;139168;-85
2024/02/05 09:34:43;;;;;;;10.50;4.90;;;;;;;7.55;100.00;95895.76;106689;1300;23116;-85
2024/02/05 09:38:23;;;;;;;;;;;;;;;;;;;;;
2024/02/05 09:41:45;;;;;;;5.00;2.20;;;;;;;7.57;100.00;95895.06;106787;1303;22604;-85
2024/02/05 09:45:15;;;;;;;3.60;2.00;;;;;;;7.57;100.00;95894.02;106551;1302;138295;-86
2024/02/05 09:48:43;;;;;;;6.50;3.20;;;;;;;7.57;100.00;95888.47;106849;1303;22604;-85
2024/02/05 09:52:13;;;;;;;6.40;3.20;;;;;;;7.58;100.00;95887.96;106688;1300;25496;-85
2024/02/05 09:55:42;;;;;;;3.90;2.20;;;;;;;7.59;100.00;95896.36;106657;1303;138432;-85
2024/02/05 09:59:11;;;;;;;2.60;1.60;;;;;;;7.57;100.00;95897.54;106863;1297;22647;-85
2024/02/05 10:02:49;;;;;;;3.80;2.50;;;;;;;7.58;100.00;95893.98;106266;1304;137340;-85
2024/02/05 10:06:19;;;;;;;8.30;5.00;;;;;;;7.59;100.00;95893.39;107650;1300;22566;-86
2024/02/05 10:09:47;;;;;;;4.10;2.60;;;;;;;7.60;100.00;95898.61;106847;1303;22970;-85
2024/02/05 10:13:15;;;;;;;6.90;3.30;;;;;;;7.63;100.00;95898.30;106734;1302;138422;-86
2024/02/05 10:16:43;;;;;;;7.50;3.70;;;;;;;7.63;100.00;95896.19;106754;1296;22539;-85
2024/02/05 10:20:19;;;;;;;;;;;;;;;;;;;;;
2024/02/05 10:23:54;;;;;;;8.20;3.90;;;;;;;7.65;100.00;95893.73;106879;1303;22590;-85
2024/02/05 10:27:22;;;;;;;5.90;2.40;;;;;;;7.65;100.00;95886.65;106683;1302;138239;-85
2024/02/05 10:30:51;;;;;;;4.40;3.00;;;;;;;7.66;100.00;95888.63;106624;1297;24268;-85
2024/02/05 10:34:22;;;;;;;3.20;2.10;;;;;;;7.67;100.00;95884.06;106640;1304;22555;-85
2024/02/05 10:37:50;;;;;;;5.70;3.40;;;;;;;7.68;100.00;95878.00;106483;1300;138383;-85
2024/02/05 10:41:20;;;;;;;3.20;2.50;;;;;;;7.70;100.00;95879.04;106328;1303;24217;-86
2024/02/05 10:44:47;;;;;;;;;;;;;;;;;;;;;
2024/02/05 10:48:16;;;;;;;8.30;3.20;;;;;;;7.71;100.00;95881.66;106720;1295;22570;-85
2024/02/05 10:51:45;;;;;;;21.00;9.50;;;;;;;7.71;100.00;95877.33;106409;1296;138296;-85
2024/02/05 10:55:12;;;;;;;4.40;2.70;;;;;;;7.72;100.00;95876.49;106708;1302;22581;-85
2024/02/05 10:58:42;;;;;;;2.60;1.50;;;;;;;7.75;100.00;95874.46;106590;1297;22846;-86
2024/02/05 11:02:10;;;;;;;3.10;1.90;;;;;;;7.75;100.00;95870.80;106562;1300;138582;-86
2024/02/05 11:05:38;;;;;;;3.50;2.00;;;;;;;7.78;100.00;95874.81;106490;1303;22611;-87
2024/02/05 11:09:19;;;;;;;5.60;2.80;;;;;;;7.79;100.00;95881.36;106530;1304;139862;-86
2024/02/05 11:12:45;;;;;;;2.50;1.60;;;;;;;7.82;100.00;95872.77;106636;1301;22581;-84
2024/02/05 11:16:19;;;;;;;4.60;3.40;;;;;;;7.85;100.00;95869.17;106641;1303;22566;-85
2024/02/05 11:19:46;;;;;;;4.60;3.40;;;;;;;7.89;100.00;95869.13;106417;1297;139129;-85
2024/02/05 11:23:14;;;;;;;4.00;3.30;;;;;;;7.93;100.00;95866.40;106685;1304;22508;-85
2024/02/05 11:26:43;;;;;;;5.60;3.40;;;;;;;7.96;100.00;95871.30;106888;1303;137320;-85
2024/02/05 11:30:15;;;;;;;4.40;3.20;;;;;;;7.99;100.00;95877.86;106505;1297;22660;-86
2024/02/05 11:33:41;;;;;;;5.00;3.20;;;;;;;8.02;100.00;95876.02;106428;1304;137808;-86
2024/02/05 11:37:07;;;;;;;2.60;2.20;;;;;;;8.04;100.00;95876.76;106474;1304;22549;-86
2024/02/05 11:40:38;;;;;;;2.50;1.90;;;;;;;8.05;100.00;95872.39;106404;1297;22610;-86
2024/02/05 11:44:05;;;;;;;3.70;3.40;;;;;;;8.05;100.00;95869.92;106560;1303;137717;-86
2024/02/05 11:47:34;;;;;;;2.90;2.60;;;;;;;8.05;100.00;95874.74;106541;1303;24420;-86
2024/02/05 11:51:01;;;;;;;3.80;3.50;;;;;;;8.07;100.00;95872.62;106414;1302;138501;-86
2024/02/05 11:54:29;;;;;;;4.20;3.10;;;;;;;8.08;100.00;95859.97;106558;1303;22719;-85
2024/02/05 11:57:56;;;;;;;4.30;2.70;;;;;;;8.08;100.00;95856.83;106568;1303;137101;-86
2024/02/05 12:01:25;;;;;;;2.40;2.20;;;;;;;8.09;100.00;95856.64;106709;1300;22841;-84
2024/02/05 12:04:52;;;;;;;4.10;2.90;;;;;;;8.13;100.00;95864.54;106858;1300;23497;-86
2024/02/05 12:08:20;;;;;;;4.90;3.00;;;;;;;8.16;100.00;95868.88;106474;1303;138280;-86
2024/02/05 12:11:48;;;;;;;3.80;3.20;;;;;;;8.17;100.00;95863.48;106654;1296;22689;-86
2024/02/05 12:15:27;;;;;;;;;;;;;;;;;;;;;
2024/02/05 12:18:50;;;;;;;2.40;2.10;;;;;;;8.21;100.00;95861.77;106517;1295;22583;-86
2024/02/05 12:22:17;;;;;;;3.40;2.50;;;;;;;8.21;100.00;95871.89;106651;1302;22589;-86
2024/02/05 12:25:44;;;;;;;4.30;3.80;;;;;;;8.23;100.00;95877.56;106549;1303;22755;-86
2024/02/05 12:29:15;;;;;;;3.70;3.10;;;;;;;8.23;100.00;95881.18;106537;1303;22707;-86
2024/02/05 12:32:45;;;;;;;5.60;3.80;;;;;;;8.21;100.00;95875.11;106538;1303;22558;-86
2024/02/05 12:36:16;;;;;;;4.40;3.70;;;;;;;8.20;100.00;95874.39;106573;1303;22601;-86
2024/02/05 12:39:47;;;;;;;5.50;3.80;;;;;;;8.19;100.00;95885.12;106611;1302;138833;-87
2024/02/05 12:43:11;;;;;;;6.10;4.20;;;;;;;8.17;100.00;95881.39;107057;1302;22602;-87
2024/02/05 12:46:39;;;;;;;7.20;5.00;;;;;;;8.16;100.00;95875.58;106829;1303;23217;-86
2024/02/05 12:50:06;;;;;;;9.00;5.80;;;;;;;8.15;100.00;95870.02;106566;1303;138381;-86
2024/02/05 12:53:33;;;;;;;7.20;4.20;;;;;;;8.16;100.00;95874.94;106648;1303;22594;-86
2024/02/05 12:57:01;;;;;;;6.20;5.00;;;;;;;8.17;100.00;95877.61;106526;1299;138852;-86
2024/02/05 13:00:31;;;;;;;7.50;6.80;;;;;;;8.16;100.00;95874.70;106683;1303;23037;-87
2024/02/05 13:04:05;;;;;;;5.40;4.40;;;;;;;8.15;100.00;95874.45;106590;1302;138378;-86
2024/02/05 13:07:32;;;;;;;7.50;6.50;;;;;;;8.14;100.00;95861.69;106729;1298;23720;-87
2024/02/05 13:11:03;;;;;;;5.80;4.80;;;;;;;8.14;100.00;95865.48;106674;1303;22594;-86
2024/02/05 13:14:28;;;;;;;7.70;5.50;;;;;;;8.15;100.00;95864.02;106754;1297;137791;-86
2024/02/05 13:18:04;;;;;;;3.90;3.40;;;;;;;8.13;100.00;95872.63;106850;1303;22543;-87
2024/02/05 13:21:28;;;;;;;4.50;2.50;;;;;;;8.14;100.00;95874.79;106572;1298;137141;-86
2024/02/05 13:24:56;;;;;;;4.20;2.70;;;;;;;8.14;100.00;95886.82;106743;1297;23220;-86
2024/02/05 13:28:24;;;;;;;4.30;3.20;;;;;;;8.14;100.00;95885.66;106457;1303;138412;-86
2024/02/05 13:31:53;;;;;;;4.60;3.60;;;;;;;8.14;100.00;95891.88;106650;1303;22527;-87
2024/02/05 13:35:20;;;;;;;6.00;4.40;;;;;;;8.12;100.00;95897.92;106721;1302;24458;-86
2024/02/05 13:38:49;;;;;;;6.30;4.80;;;;;;;8.09;100.00;95901.41;106447;1298;138554;-87
2024/02/05 13:42:16;;;;;;;6.80;5.70;;;;;;;8.06;100.00;95914.52;106651;1297;23551;-85
2024/02/05 13:45:54;;;;;;;;;;;;;;;;;;;;;
2024/02/05 13:49:16;;;;;;;7.90;5.20;;;;;;;8.00;100.00;95932.36;106444;1302;22569;-86
2024/02/05 13:52:49;;;;;;;9.30;6.90;;;;;;;7.96;100.00;95926.25;106572;1298;23044;-86
2024/02/05 13:56:17;;;;;;;8.20;5.30;;;;;;;7.93;100.00;95947.42;106481;1300;22623;-84
2024/02/05 13:59:53;;;;;;;12.20;7.30;;;;;;;7.90;100.00;95943.77;106540;1304;25450;-86
2024/02/05 14:03:22;;;;;;;9.90;7.10;;;;;;;7.88;100.00;95945.73;107267;1297;139163;-85
2024/02/05 14:06:50;;;;;;;7.60;5.90;;;;;;;7.87;100.00;95948.75;106553;1303;25326;-85
2024/02/05 14:10:18;;;;;;;9.50;7.20;;;;;;;7.86;100.00;95951.55;106640;1296;137546;-86
2024/02/05 14:13:48;;;;;;;8.20;6.60;;;;;;;7.85;100.00;95943.18;107046;1300;22615;-86
2024/02/05 14:17:17;;;;;;;8.10;6.70;;;;;;;7.84;100.00;95936.21;106788;1304;22580;-87
2024/02/05 14:20:55;;;;;;;;;;;;;;;;;;;;;
2024/02/05 14:24:28;;;;;;;6.20;3.90;;;;;;;7.87;100.00;95936.56;106889;1303;22608;-86
2024/02/05 14:27:57;;;;;;;7.40;3.60;;;;;;;7.91;100.00;95931.96;106778;1304;138382;-87
2024/02/05 14:31:24;;;;;;;4.60;3.30;;;;;;;7.93;100.00;95938.92;107009;1303;23081;-87
2024/02/05 14:35:00;;;;;;;10.40;5.90;;;;;;;7.96;100.00;95939.61;106678;1297;138318;-88
2024/02/05 14:38:27;;;;;;;6.20;4.20;;;;;;;7.98;100.00;95942.48;107052;1297;22639;-87
2024/02/05 14:41:55;;;;;;;62.00;27.20;;;;;;;8.00;100.00;95941.91;107085;1303;22566;-87
2024/02/05 14:45:28;;;;;;;42.20;17.60;;;;;;;8.06;100.00;95942.81;106944;1303;138296;-88
2024/02/05 14:49:02;;;;;;;108.20;56.40;;;;;;;8.12;100.00;95954.05;107052;1297;22645;-88
2024/02/05 14:52:29;;;;;;;76.30;23.90;;;;;;;8.16;100.00;95946.84;106799;1303;137724;-88
2024/02/05 14:55:56;;;;;;;37.30;13.10;;;;;;;8.19;100.00;95944.64;106941;1296;23969;-88
2024/02/05 14:59:30;;;;;;;25.20;9.90;;;;;;;8.20;100.00;95950.48;107016;1303;22598;-87
2024/02/05 15:02:53;;;;;;;16.70;6.50;;;;;;;8.20;100.00;95954.26;107080;1300;139395;-88
2024/02/05 15:06:21;;;;;;;14.90;5.90;;;;;;;8.22;100.00;95961.45;107237;1303;22656;-88
2024/02/05 15:09:48;;;;;;;11.00;7.00;;;;;;;8.20;100.00;95956.53;106956;1303;138696;-88
2024/02/05 15:13:24;;;;;;;8.10;5.90;;;;;;;8.23;100.00;95966.88;107098;1303;22587;-87
2024/02/05 15:17:00;;;;;;;54.30;28.00;;;;;;;8.23;100.00;95977.43;106922;1302;137113;-88
2024/02/05 15:20:28;;;;;;;12.70;6.60;;;;;;;8.24;100.00;95984.41;107144;1300;22598;-88
2024/02/05 15:23:55;;;;;;;13.60;7.60;;;;;;;8.26;100.00;95994.19;107349;1297;22657;-87
2024/02/05 15:27:26;;;;;;;18.30;8.10;;;;;;;8.26;100.00;95996.67;106944;1301;138557;-87
2024/02/05 15:30:44;;;;;;;;;;;;;;;;;;;;;
2024/02/05 15:34:18;;;;;;;18.80;11.50;;;;;;;8.25;100.00;95998.89;106693;1303;138247;-88
2024/02/05 15:37:26;;;;;;;;;;;;;;;8.23;100.00;95998.16;106960;1298;22536;-88
2024/02/05 15:41:22;;;;;;;23.00;10.70;;;;;;;8.22;100.00;95995.95;106908;1303;124678;-88
2024/02/05 15:44:14;;;;;;;13.60;7.50;;;;;;;8.22;100.00;96006.84;107121;1303;22602;-88
2024/02/05 15:47:41;;;;;;;17.60;9.40;;;;;;;8.24;100.00;96002.37;106880;1303;22622;-87
2024/02/05 15:51:10;;;;;;;23.80;11.20;;;;;;;8.25;100.00;96001.98;106903;1303;139639;-88
2024/02/05 15:54:37;;;;;;;13.70;8.20;;;;;;;8.27;100.00;96003.37;107108;1303;22704;-86
2024/02/05 15:58:08;;;;;;;14.60;8.30;;;;;;;8.29;100.00;96005.02;106873;1302;138722;-86
2024/02/05 16:01:58;;;;;;;39.60;20.10;;;;;;;8.30;100.00;96009.24;106950;1303;22599;-86
2024/02/05 16:05:04;;;;;;;22.40;12.40;;;;;;;8.30;100.00;96015.78;106846;1295;137708;-86
2024/02/05 16:08:30;;;;;;;13.30;7.70;;;;;;;8.34;100.00;96017.29;106984;1298;22730;-86
2024/02/05 16:11:58;;;;;;;11.60;6.60;;;;;;;8.37;100.00;96015.66;107096;1301;22590;-87
2024/02/05 16:15:25;;;;;;;14.40;8.20;;;;;;;8.41;100.00;96021.38;106977;1303;139588;-86
2024/02/05 16:18:55;;;;;;;9.00;6.90;;;;;;;8.42;100.00;96025.22;106956;1295;22509;-87
2024/02/05 16:22:25;;;;;;;39.40;16.60;;;;;;;8.42;100.00;96029.02;106999;1300;138225;-86
2024/02/05 16:26:15;;;;;;;24.30;9.00;;;;;;;8.42;100.00;96030.27;107095;1303;25460;-87
2024/02/05 16:29:24;;;;;;;12.10;6.70;;;;;;;8.45;100.00;96034.27;106848;1303;138811;-86